Terminal Aerodrome Forecast
Issued by NWS

Home | Current Version | Previous Version | Text Only | Print | Product List | Glossary On
Versions: 1 2 3 4 5 6 7 8 9 10 11 12 13
000
FTUS44 KLZK 251700
TAFHRO
TAF
KHRO 251740Z 2518/2618 30012G22KT P6SM VCSH SCT025 OVC035
      TEMPO 2518/2522 BKN025
     FM260200 32008KT P6SM SCT030 BKN060
     FM260900 30005KT P6SM SCT060 SCT250
     FM261400 27007KT P6SM SKC=

USA.gov is the U.S. government's official web portal to all federal, state and local government web resources and services.